Time;durP1;ratioP1;P1;durP2;ratioP2;P2;SDS_P1;SDS_P2;PMS_P1;PMS_P2;Temp;Humidity;BMP_temperature;BMP_pressure;BME280_temperature;BME280_humidity;BME280_pressure;Samples;Min_cycle;Max_cycle;Signal;HPM_P1;HPM_P2
2023/12/09 00:00:18;;;;;;;10.50;8.20;;;6.00;46.50;;;;;;5011942;28;20411;-69
2023/12/09 00:02:43;;;;;;;12.70;8.87;;;6.50;49.00;;;;;;5011854;28;20218;-70
2023/12/09 00:05:09;;;;;;;10.27;8.37;;;6.00;49.30;;;;;;5011987;28;20581;-70
2023/12/09 00:07:34;;;;;;;13.10;9.03;;;6.00;51.70;;;;;;5011858;28;20671;-70
2023/12/09 00:10:01;;;;;;;9.53;7.90;;;5.90;48.60;;;;;;5011979;28;20168;-70
2023/12/09 00:12:27;;;;;;;10.23;7.30;;;5.90;53.60;;;;;;5011997;28;20250;-70
2023/12/09 00:14:52;;;;;;;11.97;7.47;;;5.90;47.40;;;;;;5011926;28;20431;-70
2023/12/09 00:17:18;;;;;;;7.93;6.20;;;5.80;49.00;;;;;;5011768;28;20231;-70
2023/12/09 00:19:43;;;;;;;11.50;7.23;;;5.80;50.00;;;;;;5026811;28;20229;-70
2023/12/09 00:22:09;;;;;;;12.13;7.30;;;5.80;52.60;;;;;;5031415;28;20277;-70
2023/12/09 00:24:34;;;;;;;9.20;6.93;;;5.80;52.20;;;;;;5031519;28;20205;-70
2023/12/09 00:27:00;;;;;;;11.40;6.93;;;5.70;52.20;;;;;;5031417;28;20237;-70
2023/12/09 00:29:26;;;;;;;11.47;7.43;;;5.70;55.90;;;;;;5013718;28;20634;-70
2023/12/09 00:31:51;;;;;;;12.20;6.80;;;5.70;53.10;;;;;;5031143;28;20187;-70
2023/12/09 00:34:17;;;;;;;11.03;6.83;;;5.70;56.60;;;;;;5031407;28;20572;-70
2023/12/09 00:36:42;;;;;;;9.90;6.30;;;5.70;53.60;;;;;;5031415;28;20179;-71
2023/12/09 00:39:08;;;;;;;7.70;5.90;;;5.80;56.60;;;;;;5031670;28;20187;-70
2023/12/09 00:41:33;;;;;;;6.60;4.50;;;5.80;60.10;;;;;;5031620;28;20180;-70
2023/12/09 00:43:59;;;;;;;9.10;5.63;;;5.80;55.70;;;;;;5032639;28;20576;-70
2023/12/09 00:46:24;;;;;;;12.73;5.40;;;5.80;58.60;;;;;;5034954;28;20645;-70
2023/12/09 00:48:50;;;;;;;12.30;5.73;;;5.80;57.00;;;;;;5035434;28;20229;-70
2023/12/09 00:51:16;;;;;;;12.37;5.77;;;5.40;54.80;;;;;;5017356;28;20182;-70
2023/12/09 00:53:41;;;;;;;8.90;6.13;;;5.70;52.50;;;;;;5034958;28;20582;-70
2023/12/09 00:56:08;;;;;;;10.70;4.70;;;5.70;53.10;;;;;;5035229;28;20437;-70
2023/12/09 00:58:33;;;;;;;5.43;4.23;;;5.70;53.70;;;;;;5034912;28;20187;-70
2023/12/09 01:00:59;;;;;;;7.33;4.93;;;5.70;54.30;;;;;;5035068;28;20502;-70
2023/12/09 01:03:24;;;;;;;7.03;4.90;;;5.70;57.90;;;;;;5035051;28;20211;-70
2023/12/09 01:05:50;;;;;;;6.97;5.13;;;5.70;58.50;;;;;;5017399;28;20190;-70
2023/12/09 01:08:15;;;;;;;8.03;4.50;;;5.80;65.20;;;;;;5034768;28;20363;-70
2023/12/09 01:10:41;;;;;;;6.20;3.90;;;5.70;58.40;;;;;;5034756;28;20258;-71
2023/12/09 01:13:06;;;;;;;11.30;4.83;;;5.80;58.60;;;;;;5035058;28;20270;-70
2023/12/09 01:15:32;;;;;;;10.37;4.90;;;5.60;60.00;;;;;;5034600;28;20222;-70
2023/12/09 01:17:58;;;;;;;10.97;4.30;;;5.60;58.30;;;;;;5034521;28;20255;-70
2023/12/09 01:20:24;;;;;;;8.93;4.57;;;5.60;58.10;;;;;;5016905;28;20333;-70
2023/12/09 01:22:50;;;;;;;5.70;4.07;;;5.60;60.40;;;;;;5034434;28;20583;-70
2023/12/09 01:25:16;;;;;;;7.43;4.60;;;;;;;;;;5034267;28;20652;-70
2023/12/09 01:27:41;;;;;;;11.30;4.57;;;5.50;56.10;;;;;;5034479;28;20666;-70
2023/12/09 01:30:07;;;;;;;9.43;4.00;;;5.50;64.00;;;;;;5034292;28;20415;-70
2023/12/09 01:32:33;;;;;;;10.97;3.20;;;5.50;61.80;;;;;;5034266;28;20675;-70
2023/12/09 01:34:59;;;;;;;6.93;3.50;;;5.40;60.10;;;;;;5034068;28;20438;-70
2023/12/09 01:37:24;;;;;;;11.80;4.27;;;5.50;62.30;;;;;;5021567;28;20187;-70
2023/12/09 01:39:50;;;;;;;8.10;4.17;;;;;;;;;;5014474;28;20263;-70
2023/12/09 01:42:16;;;;;;;8.80;3.30;;;5.60;43.10;;;;;;5014165;28;20200;-70
2023/12/09 01:44:41;;;;;;;5.77;3.63;;;5.60;43.70;;;;;;5014158;28;20446;-70
2023/12/09 01:47:07;;;;;;;4.47;3.30;;;5.70;43.80;;;;;;5014031;28;20176;-70
2023/12/09 01:49:33;;;;;;;5.80;3.77;;;5.70;43.80;;;;;;5027405;28;20183;-70
2023/12/09 01:52:00;;;;;;;4.60;3.20;;;;;;;;;;5033859;28;20207;-70
2023/12/09 01:54:27;;;;;;;6.00;3.10;;;5.80;48.30;;;;;;5033271;28;20586;-70
2023/12/09 01:56:54;;;;;;;5.77;3.93;;;5.80;50.40;;;;;;5033690;28;20465;-70
2023/12/09 01:59:20;;;;;;;7.53;4.20;;;5.80;48.80;;;;;;5033676;28;20422;-70
2023/12/09 02:01:47;;;;;;;8.70;3.60;;;5.80;48.00;;;;;;5033141;28;20422;-69
2023/12/09 02:04:14;;;;;;;6.40;3.80;;;5.70;48.80;;;;;;5023523;28;20534;-69
2023/12/09 02:06:40;;;;;;;5.33;3.50;;;5.70;48.70;;;;;;5013834;28;20435;-69
2023/12/09 02:09:06;;;;;;;10.93;3.70;;;5.70;48.70;;;;;;5023637;28;20422;-69
2023/12/09 02:11:51;;;;;;;6.60;3.40;;;5.80;48.80;;;;;;5033643;28;20422;-69
2023/12/09 02:14:25;;;;;;;3.73;2.93;;;5.70;49.90;;;;;;5033963;28;20230;-69
2023/12/09 02:17:03;;;;;;;12.30;4.50;;;5.70;50.10;;;;;;5016121;28;20425;-69
2023/12/09 02:19:29;;;;;;;7.37;3.33;;;5.80;49.90;;;;;;5020280;28;20430;-69
2023/12/09 02:22:05;;;;;;;8.40;4.23;;;5.80;48.80;;;;;;5013878;28;20466;-69
2023/12/09 02:24:31;;;;;;;4.77;3.57;;;5.80;50.80;;;;;;4995835;28;20447;-69
2023/12/09 02:26:59;;;;;;;11.07;5.43;;;;;;;;;;4995580;28;20427;-69
2023/12/09 02:29:26;;;;;;;7.20;3.17;;;5.90;37.10;;;;;;5013379;28;20408;-69
2023/12/09 02:31:59;;;;;;;8.53;4.17;;;5.90;36.90;;;;;;5011709;28;20517;-69
2023/12/09 02:34:26;;;;;;;6.37;3.60;;;;;;;;;;5033033;28;20450;-69
2023/12/09 02:36:52;;;;;;;5.23;3.20;;;6.00;46.60;;;;;;5032745;28;20422;-68
2023/12/09 02:39:19;;;;;;;7.53;3.87;;;6.00;51.60;;;;;;5032965;28;20837;-69
2023/12/09 02:41:46;;;;;;;6.40;4.27;;;6.00;50.80;;;;;;5032969;28;20504;-69
2023/12/09 02:44:12;;;;;;;6.30;3.97;;;5.90;46.60;;;;;;5031291;28;20468;-69
2023/12/09 02:46:38;;;;;;;5.43;3.67;;;5.80;49.20;;;;;;5032632;28;20418;-69
2023/12/09 02:49:03;;;;;;;7.00;4.20;;;5.90;51.60;;;;;;5032870;28;20415;-69
2023/12/09 02:51:29;;;;;;;6.40;2.80;;;5.90;54.20;;;;;;5032684;28;20179;-70
2023/12/09 02:53:54;;;;;;;6.47;4.20;;;5.90;44.80;;;;;;5032073;28;20221;-69
2023/12/09 02:56:20;;;;;;;9.27;4.17;;;;;;;;;;5013080;28;20195;-69
2023/12/09 02:58:47;;;;;;;5.80;3.93;;;;;;;;;;4995791;28;20192;-70
2023/12/09 03:01:12;;;;;;;6.67;4.30;;;5.90;53.20;;;;;;5013488;28;20418;-69
2023/12/09 03:03:38;;;;;;;7.17;3.60;;;;;;;;;;5013057;28;20473;-70
2023/12/09 03:06:04;;;;;;;5.73;3.40;;;6.00;49.40;;;;;;5012625;28;20215;-69
2023/12/09 03:08:30;;;;;;;7.90;3.77;;;6.00;54.60;;;;;;5017787;28;20437;-69
2023/12/09 03:10:55;;;;;;;7.20;3.40;;;;;;;;;;5032795;28;20179;-69
2023/12/09 03:13:21;;;;;;;5.33;3.20;;;6.00;50.00;;;;;;5032608;28;20207;-68
2023/12/09 03:15:47;;;;;;;6.90;3.40;;;;;;;;;;5014675;28;20421;-69
2023/12/09 03:18:13;;;;;;;8.17;3.37;;;;;;;;;;5032147;28;20175;-69
2023/12/09 03:20:38;;;;;;;5.00;2.53;;;5.90;53.20;;;;;;5032090;28;20427;-69
2023/12/09 03:23:04;;;;;;;6.63;3.57;;;6.00;49.50;;;;;;5028577;28;20466;-70
2023/12/09 03:25:29;;;;;;;10.10;3.70;;;5.50;52.40;;;;;;5028344;28;20357;-70
2023/12/09 03:27:55;;;;;;;4.30;3.50;;;6.20;49.80;;;;;;5014348;28;20183;-70
2023/12/09 03:30:21;;;;;;;6.90;2.70;;;5.80;52.30;;;;;;5032235;28;20177;-70
2023/12/09 03:32:46;;;;;;;5.70;3.20;;;5.90;53.00;;;;;;5014366;28;20194;-72
2023/12/09 03:35:12;;;;;;;6.10;4.27;;;5.80;55.50;;;;;;5014376;28;20179;-71
2023/12/09 03:37:38;;;;;;;4.60;3.17;;;4.80;56.30;;;;;;5017472;28;20184;-70
2023/12/09 03:40:05;;;;;;;5.70;3.87;;;5.30;55.30;;;;;;5012513;28;20271;-70
2023/12/09 03:42:30;;;;;;;5.43;4.80;;;5.50;58.80;;;;;;5012674;28;20461;-71
2023/12/09 03:44:56;;;;;;;5.20;4.00;;;5.80;55.80;;;;;;5012177;28;20519;-70
2023/12/09 03:47:21;;;;;;;9.03;4.27;;;5.80;53.20;;;;;;5012125;28;20181;-71
2023/12/09 03:49:47;;;;;;;8.70;4.30;;;5.90;55.20;;;;;;5009759;28;20225;-71
2023/12/09 03:52:12;;;;;;;11.43;4.00;;;5.80;55.40;;;;;;5032105;28;20187;-71
2023/12/09 03:54:39;;;;;;;4.23;2.67;;;5.80;54.90;;;;;;5041397;22;20500;-71
2023/12/09 03:57:04;;;;;;;9.03;4.17;;;5.40;53.50;;;;;;5011404;28;20207;-70
2023/12/09 03:59:30;;;;;;;7.40;3.60;;;5.50;52.90;;;;;;5011568;28;20443;-70
2023/12/09 04:01:55;;;;;;;8.13;4.90;;;5.40;52.50;;;;;;5011468;28;20638;-70
2023/12/09 04:04:21;;;;;;;8.47;4.07;;;5.30;55.00;;;;;;5031102;28;20266;-70
2023/12/09 04:06:46;;;;;;;7.43;4.53;;;5.00;55.00;;;;;;5031061;28;20171;-70
2023/12/09 04:09:12;;;;;;;6.90;4.73;;;5.00;55.40;;;;;;5031275;28;20259;-70
2023/12/09 04:11:37;;;;;;;7.63;3.97;;;4.90;57.50;;;;;;5012575;28;20175;-70
2023/12/09 04:14:06;;;;;;;9.13;6.63;;;4.90;57.50;;;;;;5011233;28;20203;-70
2023/12/09 04:16:31;;;;;;;9.50;5.30;;;4.90;62.80;;;;;;5011238;28;20269;-70
2023/12/09 04:18:57;;;;;;;8.53;5.10;;;4.90;62.70;;;;;;5014747;28;20448;-69
2023/12/09 04:21:22;;;;;;;12.13;4.67;;;4.60;61.50;;;;;;5015356;28;20191;-69
2023/12/09 04:23:48;;;;;;;6.20;4.17;;;4.80;62.60;;;;;;5015319;28;20211;-69
2023/12/09 04:26:13;;;;;;;9.60;4.20;;;4.60;59.60;;;;;;5019211;28;20219;-70
2023/12/09 04:28:39;;;;;;;8.17;4.50;;;4.60;65.50;;;;;;5034941;28;20205;-70
2023/12/09 04:31:05;;;;;;;6.13;4.10;;;4.60;65.00;;;;;;5034848;28;20622;-69
2023/12/09 04:33:30;;;;;;;9.67;5.53;;;4.50;64.00;;;;;;5016770;28;20517;-69
2023/12/09 04:35:56;;;;;;;5.80;3.60;;;4.50;62.10;;;;;;5034792;28;20178;-69
2023/12/09 04:38:22;;;;;;;6.60;4.27;;;4.50;62.60;;;;;;5034665;28;20240;-69
2023/12/09 04:40:47;;;;;;;4.83;3.70;;;4.40;64.00;;;;;;5031547;28;20242;-70
2023/12/09 04:43:13;;;;;;;7.87;5.17;;;4.40;61.60;;;;;;5014869;28;20210;-69
2023/12/09 04:45:38;;;;;;;5.60;3.70;;;4.40;63.70;;;;;;5015373;28;20630;-69
2023/12/09 04:48:04;;;;;;;9.00;4.57;;;4.50;64.80;;;;;;5014639;28;20182;-69
2023/12/09 04:50:30;;;;;;;7.97;4.10;;;4.60;65.20;;;;;;5014751;28;20254;-69
2023/12/09 04:52:56;;;;;;;7.93;4.40;;;4.70;64.40;;;;;;5014839;28;20178;-70
2023/12/09 04:55:21;;;;;;;5.43;3.10;;;4.70;62.50;;;;;;5021647;28;20511;-69
2023/12/09 04:57:47;;;;;;;8.03;4.00;;;4.80;64.00;;;;;;5034235;28;20179;-70
2023/12/09 05:00:13;;;;;;;5.23;3.50;;;4.80;62.70;;;;;;5034337;28;20282;-70
2023/12/09 05:02:39;;;;;;;9.63;4.23;;;4.80;59.70;;;;;;5034635;28;20225;-69
2023/12/09 05:05:04;;;;;;;4.40;3.17;;;4.80;58.00;;;;;;5034146;28;20449;-71
2023/12/09 05:07:30;;;;;;;4.10;2.93;;;4.80;60.90;;;;;;5034117;28;20259;-70
2023/12/09 05:09:56;;;;;;;4.90;3.30;;;4.90;62.60;;;;;;5027896;28;20187;-70
2023/12/09 05:12:22;;;;;;;6.10;3.60;;;4.90;60.40;;;;;;5014354;28;20438;-70
2023/12/09 05:14:47;;;;;;;4.63;2.80;;;4.90;60.80;;;;;;5014091;28;20199;-70
2023/12/09 05:17:14;;;;;;;3.30;3.00;;;4.90;59.40;;;;;;5014063;28;20291;-70
2023/12/09 05:19:39;;;;;;;4.87;3.67;;;4.90;59.90;;;;;;5014376;28;20588;-70
2023/12/09 05:22:05;;;;;;;6.40;3.23;;;5.00;56.50;;;;;;5014175;28;20508;-69
2023/12/09 05:24:30;;;;;;;5.93;3.40;;;4.90;56.90;;;;;;5024479;28;20234;-69
2023/12/09 05:26:57;;;;;;;4.77;3.43;;;4.90;57.80;;;;;;5033793;28;20175;-69
2023/12/09 05:29:23;;;;;;;6.87;3.17;;;4.80;55.20;;;;;;5033322;28;20197;-69
2023/12/09 05:31:48;;;;;;;4.87;3.03;;;4.80;55.40;;;;;;5033964;28;20417;-69
2023/12/09 05:34:14;;;;;;;4.30;3.50;;;4.80;56.20;;;;;;5033902;28;20226;-69
2023/12/09 05:36:39;;;;;;;6.00;2.60;;;4.70;56.30;;;;;;5033682;28;20557;-69
2023/12/09 05:39:05;;;;;;;4.23;2.90;;;4.60;57.20;;;;;;5019181;28;20257;-69
2023/12/09 05:41:31;;;;;;;4.73;2.90;;;4.50;56.80;;;;;;4996175;28;20179;-69
2023/12/09 05:43:57;;;;;;;5.50;2.83;;;;;;;;;;4995976;28;20211;-69
2023/12/09 05:46:22;;;;;;;4.93;3.40;;;4.30;58.60;;;;;;5013557;28;20463;-69
2023/12/09 05:48:49;;;;;;;4.17;2.90;;;4.20;61.50;;;;;;4995736;28;20434;-69
2023/12/09 05:51:15;;;;;;;4.27;2.60;;;;;;;;;;5021724;28;20293;-69
2023/12/09 05:53:41;;;;;;;5.53;3.50;;;4.10;63.10;;;;;;5015730;28;20963;-69
2023/12/09 05:56:13;;;;;;;3.77;2.60;;;;;;;;;;5033710;28;20434;-72
2023/12/09 05:58:39;;;;;;;3.43;2.30;;;3.90;66.10;;;;;;5035310;28;20500;-70
2023/12/09 06:01:06;;;;;;;5.10;2.67;;;3.80;65.70;;;;;;5035298;28;20502;-72
2023/12/09 06:03:31;;;;;;;5.67;3.40;;;3.90;68.30;;;;;;5036479;28;20490;-71
2023/12/09 06:05:58;;;;;;;5.67;3.30;;;4.10;67.30;;;;;;5022902;28;20435;-71
2023/12/09 06:08:23;;;;;;;6.23;2.87;;;4.00;65.80;;;;;;5016871;28;20174;-71
2023/12/09 06:10:49;;;;;;;5.83;2.80;;;4.10;62.40;;;;;;5016758;28;20999;-71
2023/12/09 06:13:15;;;;;;;6.20;2.40;;;4.00;61.90;;;;;;4998863;28;20186;-72
2023/12/09 06:15:41;;;;;;;4.87;2.93;;;4.10;62.00;;;;;;4998538;28;20194;-72
2023/12/09 06:18:06;;;;;;;4.73;2.53;;;4.10;62.40;;;;;;5015927;28;20415;-72
2023/12/09 06:20:32;;;;;;;4.10;2.80;;;4.10;61.50;;;;;;5028815;28;20275;-72
2023/12/09 06:22:57;;;;;;;3.63;2.33;;;4.10;58.70;;;;;;5035652;28;20212;-71
2023/12/09 06:25:23;;;;;;;3.90;2.20;;;;;;;;;;5035881;28;20202;-72
2023/12/09 06:27:49;;;;;;;4.30;2.20;;;4.20;60.40;;;;;;5034770;28;20379;-72
2023/12/09 06:30:14;;;;;;;4.67;2.20;;;4.30;60.50;;;;;;5033113;28;20417;-72
2023/12/09 06:32:41;;;;;;;4.57;2.70;;;4.30;59.40;;;;;;5032954;28;20544;-72
2023/12/09 06:35:07;;;;;;;3.20;2.73;;;4.30;58.60;;;;;;5015524;28;20428;-72
2023/12/09 06:37:33;;;;;;;5.60;2.53;;;4.30;59.10;;;;;;5012967;28;20947;-71
2023/12/09 06:39:59;;;;;;;3.43;1.90;;;4.30;58.10;;;;;;5013232;28;20236;-70
2023/12/09 06:42:25;;;;;;;3.87;2.10;;;;;;;;;;5012296;28;20286;-70
2023/12/09 06:44:50;;;;;;;5.20;2.40;;;4.50;55.80;;;;;;5017792;28;20474;-70
2023/12/09 06:47:16;;;;;;;3.03;2.10;;;4.40;56.90;;;;;;5032443;28;20492;-70
2023/12/09 06:49:41;;;;;;;4.17;1.67;;;4.50;58.10;;;;;;5032501;28;20170;-71
2023/12/09 06:52:07;;;;;;;5.40;2.40;;;4.60;57.30;;;;;;5032367;28;20221;-71
2023/12/09 06:54:32;;;;;;;2.13;1.33;;;4.60;56.50;;;;;;5032134;28;20715;-70
2023/12/09 06:56:58;;;;;;;2.63;1.70;;;4.70;55.40;;;;;;5032019;28;20221;-70
2023/12/09 06:59:25;;;;;;;3.87;1.77;;;4.80;54.90;;;;;;5004715;28;20194;-71
2023/12/09 07:01:50;;;;;;;5.30;1.90;;;4.80;54.90;;;;;;5012404;28;20207;-71
2023/12/09 07:04:16;;;;;;;3.17;1.90;;;4.90;54.00;;;;;;5012232;28;20815;-71
2023/12/09 07:06:42;;;;;;;2.43;1.50;;;4.90;53.30;;;;;;5012226;28;20195;-71
2023/12/09 07:09:08;;;;;;;5.83;2.17;;;4.90;53.20;;;;;;5012434;28;20805;-71
2023/12/09 07:11:34;;;;;;;3.30;2.20;;;4.90;54.00;;;;;;5012421;28;20682;-70
2023/12/09 07:13:59;;;;;;;9.03;2.97;;;5.00;53.10;;;;;;5029232;28;20541;-70
2023/12/09 07:16:25;;;;;;;4.73;3.20;;;5.00;52.60;;;;;;5032093;28;20178;-71
2023/12/09 07:18:52;;;;;;;3.20;2.50;;;5.00;50.30;;;;;;4999897;28;20674;-70
2023/12/09 07:21:18;;;;;;;4.97;2.80;;;5.00;47.40;;;;;;4992599;28;20281;-70
2023/12/09 07:23:43;;;;;;;4.17;3.00;;;5.00;47.70;;;;;;4992261;28;20502;-70
2023/12/09 07:26:10;;;;;;;3.20;2.20;;;5.20;46.20;;;;;;4997035;28;20187;-70
2023/12/09 07:28:35;;;;;;;3.97;2.93;;;5.20;45.90;;;;;;5031761;28;20170;-70
2023/12/09 07:31:02;;;;;;;4.83;2.93;;;5.20;43.80;;;;;;5031891;28;20920;-70
2023/12/09 07:33:27;;;;;;;5.83;2.63;;;5.30;44.30;;;;;;5031667;28;20198;-70
2023/12/09 07:35:53;;;;;;;5.47;3.40;;;5.30;43.40;;;;;;5005669;28;20423;-69
2023/12/09 07:38:18;;;;;;;4.43;3.13;;;5.30;45.10;;;;;;4991836;28;20187;-69
2023/12/09 07:40:44;;;;;;;3.00;2.20;;;5.40;46.10;;;;;;4995234;28;20268;-69
2023/12/09 07:43:10;;;;;;;3.57;2.70;;;5.60;43.50;;;;;;5032357;28;20195;-69
2023/12/09 07:45:36;;;;;;;4.53;3.07;;;5.60;43.20;;;;;;5032195;28;20496;-69
2023/12/09 07:48:02;;;;;;;6.93;4.00;;;5.70;43.50;;;;;;5032585;28;20174;-68
2023/12/09 07:50:27;;;;;;;5.50;3.13;;;5.80;42.70;;;;;;5033063;28;20175;-70
2023/12/09 07:52:53;;;;;;;6.53;3.90;;;5.90;40.50;;;;;;5014843;28;20432;-68
2023/12/09 07:55:20;;;;;;;4.23;3.23;;;6.00;40.70;;;;;;5027033;28;20326;-70
2023/12/09 07:57:45;;;;;;;4.87;3.27;;;6.00;39.90;;;;;;5013430;28;20491;-69
2023/12/09 08:00:11;;;;;;;10.30;4.17;;;6.10;40.00;;;;;;5001006;28;20210;-70
2023/12/09 08:02:37;;;;;;;7.10;3.07;;;6.00;41.30;;;;;;5026555;28;20290;-70
2023/12/09 08:05:03;;;;;;;5.23;3.10;;;6.10;39.70;;;;;;5005042;28;20452;-69
2023/12/09 08:07:28;;;;;;;3.33;2.00;;;6.10;41.70;;;;;;5004325;28;20191;-70
2023/12/09 08:09:54;;;;;;;3.20;2.03;;;6.20;39.10;;;;;;5033417;28;20509;-68
2023/12/09 08:12:20;;;;;;;4.03;2.40;;;6.20;40.00;;;;;;5033796;28;20184;-69
2023/12/09 08:14:45;;;;;;;4.10;3.10;;;6.30;41.10;;;;;;5015312;28;20216;-69
2023/12/09 08:17:11;;;;;;;7.70;3.17;;;6.40;39.30;;;;;;5032514;28;20289;-71
2023/12/09 08:19:36;;;;;;;4.80;2.63;;;6.50;38.70;;;;;;5033550;28;20262;-70
2023/12/09 08:22:03;;;;;;;2.97;2.27;;;6.60;37.60;;;;;;5015603;28;20188;-70
2023/12/09 08:24:28;;;;;;;5.67;3.77;;;6.50;37.70;;;;;;4994571;28;20651;-70
2023/12/09 08:26:54;;;;;;;4.17;2.30;;;6.60;37.60;;;;;;5011952;28;20449;-72
2023/12/09 08:29:20;;;;;;;5.77;3.03;;;6.60;37.80;;;;;;5011991;28;20602;-70
2023/12/09 08:31:49;;;;;;;6.57;3.23;;;6.60;36.60;;;;;;5011721;28;20419;-69
2023/12/09 08:34:18;;;;;;;4.00;1.93;;;6.60;36.50;;;;;;5027981;28;20442;-70
2023/12/09 08:36:44;;;;;;;4.37;1.80;;;6.70;37.20;;;;;;5031239;28;20474;-69
2023/12/09 08:39:10;;;;;;;3.90;2.20;;;6.70;35.70;;;;;;5031221;28;20513;-68
2023/12/09 08:41:37;;;;;;;3.60;2.30;;;6.80;37.00;;;;;;5014704;28;20425;-69
2023/12/09 08:44:03;;;;;;;3.23;1.87;;;7.00;34.30;;;;;;5016317;28;20478;-69
2023/12/09 08:46:29;;;;;;;3.50;2.23;;;7.10;33.50;;;;;;5031289;28;20943;-69
2023/12/09 08:48:55;;;;;;;3.87;2.40;;;7.00;32.70;;;;;;5014542;28;20473;-69
2023/12/09 08:51:20;;;;;;;3.97;2.20;;;6.90;33.00;;;;;;5001196;28;20952;-69
2023/12/09 08:53:46;;;;;;;4.80;2.27;;;6.90;33.60;;;;;;5011432;28;20218;-69
2023/12/09 08:56:11;;;;;;;11.30;2.87;;;6.80;34.30;;;;;;5011439;28;20188;-69
2023/12/09 08:58:37;;;;;;;3.50;2.47;;;6.80;36.10;;;;;;4993577;28;20190;-70
2023/12/09 09:01:03;;;;;;;3.67;2.40;;;6.80;34.70;;;;;;5012414;28;20207;-68
2023/12/09 09:03:29;;;;;;;2.30;1.40;;;6.80;34.50;;;;;;5022152;28;20212;-68
2023/12/09 09:05:54;;;;;;;5.10;2.23;;;6.80;35.00;;;;;;4996494;28;20187;-69
2023/12/09 09:08:20;;;;;;;3.57;2.03;;;6.80;34.50;;;;;;5014317;28;20416;-69
2023/12/09 09:10:45;;;;;;;5.80;1.73;;;6.90;35.60;;;;;;5000154;28;20181;-69
2023/12/09 09:13:11;;;;;;;2.73;2.03;;;7.00;34.60;;;;;;4994522;28;20195;-68
2023/12/09 09:15:37;;;;;;;3.00;2.13;;;7.10;33.80;;;;;;4994583;28;20232;-70
2023/12/09 09:18:02;;;;;;;3.50;1.87;;;7.20;34.10;;;;;;4994892;28;20185;-69
2023/12/09 09:20:28;;;;;;;3.23;1.97;;;7.40;33.40;;;;;;4993564;28;20711;-69
2023/12/09 09:22:53;;;;;;;4.07;2.30;;;7.50;32.10;;;;;;4993662;28;20417;-69
2023/12/09 09:25:19;;;;;;;4.20;2.23;;;7.80;30.70;;;;;;4994857;28;20220;-69
2023/12/09 09:27:45;;;;;;;3.13;1.97;;;7.80;29.80;;;;;;4994858;28;20653;-69
2023/12/09 09:30:13;;;;;;;3.90;2.63;;;8.00;30.40;;;;;;4994948;28;20668;-69
2023/12/09 09:32:38;;;;;;;2.60;1.70;;;8.10;29.50;;;;;;4995003;28;20420;-69
2023/12/09 09:35:04;;;;;;;3.30;1.30;;;8.30;28.50;;;;;;4994804;28;20500;-69
2023/12/09 09:37:30;;;;;;;3.80;1.80;;;;;;;;;;4994658;28;20191;-70
2023/12/09 09:39:56;;;;;;;2.80;1.67;;;;;;;;;;4994702;28;20414;-70
2023/12/09 09:42:31;;;;;;;3.23;1.83;;;;;;;;;;4993511;28;20465;-69
2023/12/09 09:45:12;;;;;;;2.80;1.43;;;;;;;;;;4994800;28;20433;-70
2023/12/09 09:47:39;;;;;;;3.10;1.80;;;;;;;;;;4994539;28;20823;-70
2023/12/09 09:50:08;;;;;;;4.17;2.07;;;;;;;;;;4994715;28;20447;-71
2023/12/09 09:52:40;;;;;;;3.63;2.03;;;;;;;;;;4994485;28;20464;-70
2023/12/09 09:55:06;;;;;;;3.07;1.90;;;;;;;;;;5035600;22;20506;-68
2023/12/09 09:57:33;;;;;;;4.20;2.07;;;;;;;;;;5033449;28;20417;-68
2023/12/09 09:59:59;;;;;;;4.63;2.27;;;;;;;;;;5033626;28;20527;-68
2023/12/09 10:02:28;;;;;;;4.73;2.23;;;;;;;;;;5033557;28;20470;-69
2023/12/09 10:04:54;;;;;;;7.47;2.30;;;;;;;;;;5033462;28;20490;-68
2023/12/09 10:07:21;;;;;;;6.87;2.87;;;;;;;;;;5033229;28;20412;-69
2023/12/09 10:09:47;;;;;;;4.57;2.90;;;;;;;;;;5015650;28;20446;-68
2023/12/09 10:12:13;;;;;;;5.53;3.03;;;;;;;;;;5015639;28;20464;-68
2023/12/09 10:14:39;;;;;;;3.97;2.33;;;;;;;;;;5033209;28;20468;-68
2023/12/09 10:17:05;;;;;;;4.60;2.70;;;;;;;;;;5033407;28;20421;-68
2023/12/09 10:19:34;;;;;;;3.73;2.20;;;;;;;;;;5033169;28;20766;-68
2023/12/09 10:22:00;;;;;;;4.93;2.83;;;;;;;;;;5015249;28;20439;-69
2023/12/09 10:24:26;;;;;;;5.50;3.73;;;;;;;;;;5032977;28;20438;-69
2023/12/09 10:26:52;;;;;;;3.57;2.60;;;;;;;;;;5032865;28;20421;-69
2023/12/09 10:29:18;;;;;;;4.60;2.37;;;;;;;;;;5032910;28;20485;-69
2023/12/09 10:31:44;;;;;;;5.20;2.00;;;;;;;;;;5032936;28;20418;-69
2023/12/09 10:34:14;;;;;;;4.27;2.77;;;;;;;;;;5032721;28;20434;-69
2023/12/09 10:36:40;;;;;;;4.20;2.60;;;;;;;;;;5032678;28;20505;-69
2023/12/09 10:39:08;;;;;;;4.17;2.40;;;;;;;;;;5032788;28;20425;-70
2023/12/09 10:41:34;;;;;;;6.67;2.67;;;;;;;;;;5033236;28;20466;-70
2023/12/09 10:44:02;;;;;;;3.03;2.23;;;;;;;;;;5032604;28;20992;-70
2023/12/09 10:46:28;;;;;;;3.70;2.40;;;;;;;;;;5032494;28;20413;-72
2023/12/09 10:48:54;;;;;;;3.97;2.27;;;;;;;;;;5032619;28;20768;-70
2023/12/09 10:51:20;;;;;;;3.07;1.63;;;;;;;;;;5032598;28;20436;-69
2023/12/09 10:53:46;;;;;;;2.70;1.40;;;;;;;;;;5032616;28;20530;-69
2023/12/09 10:56:12;;;;;;;2.87;1.67;;;;;;;;;;5014858;28;20540;-68
2023/12/09 10:58:39;;;;;;;3.20;2.10;;;;;;;;;;5032411;28;20422;-69
2023/12/09 11:01:05;;;;;;;4.90;2.27;;;;;;;;;;5032316;28;20413;-69
2023/12/09 11:03:32;;;;;;;2.70;1.63;;;;;;;;;;5032257;28;20971;-69
2023/12/09 11:05:59;;;;;;;4.20;2.37;;;;;;;;;;5032375;28;20803;-69
2023/12/09 11:08:28;;;;;;;2.93;1.80;;;;;;;;;;5032186;28;20459;-69
2023/12/09 11:10:54;;;;;;;3.27;2.07;;;;;;;;;;5032316;28;20416;-68
2023/12/09 11:13:20;;;;;;;4.00;2.33;;;;;;;;;;5032096;28;20900;-69
2023/12/09 11:15:46;;;;;;;4.50;2.10;;;;;;;;;;5032275;28;20409;-69
2023/12/09 11:18:13;;;;;;;3.07;1.73;;;;;;;;;;5014479;28;20425;-69
2023/12/09 11:20:40;;;;;;;3.97;2.27;;;;;;;;;;5032106;28;20445;-69
2023/12/09 11:23:10;;;;;;;3.87;2.60;;;;;;;;;;5031961;28;20964;-70
2023/12/09 11:25:38;;;;;;;3.77;2.30;;;;;;;;;;5031995;28;20430;-69
2023/12/09 11:28:04;;;;;;;3.70;2.43;;;;;;;;;;5031187;28;20406;-68
2023/12/09 11:30:33;;;;;;;5.20;1.50;;;;;;;;;;5032199;28;20404;-68
2023/12/09 11:32:59;;;;;;;4.97;3.10;;;;;;;;;;5032332;28;20420;-69
2023/12/09 11:35:26;;;;;;;4.03;2.20;;;;;;;;;;5014063;28;20450;-70
2023/12/09 11:37:53;;;;;;;3.47;2.30;;;;;;;;;;5031694;28;20913;-68
2023/12/09 11:40:19;;;;;;;4.50;2.63;;;;;;;;;;5031832;28;20490;-69
2023/12/09 11:42:46;;;;;;;4.23;2.40;;;;;;;;;;5031571;28;20457;-68
2023/12/09 11:45:12;;;;;;;4.00;2.63;;;;;;;;;;5013733;28;20442;-68
2023/12/09 11:47:39;;;;;;;3.97;2.27;;;;;;;;;;5013637;28;20417;-69
2023/12/09 11:50:06;;;;;;;3.00;2.30;;;;;;;;;;5031649;28;20437;-69
2023/12/09 11:52:32;;;;;;;3.53;1.90;;;;;;;;;;5013876;28;20429;-68
2023/12/09 11:55:03;;;;;;;3.70;2.10;;;;;;;;;;5031447;28;20464;-68
2023/12/09 11:57:30;;;;;;;7.60;2.40;;;;;;;;;;5031407;28;20422;-68
2023/12/09 11:59:56;;;;;;;4.83;2.37;;;;;;;;;;5031505;28;20451;-68
2023/12/09 12:02:21;;;;;;;4.20;2.57;;;;;;;;;;5031429;28;20493;-68
2023/12/09 12:04:47;;;;;;;3.80;2.13;;;;;;;;;;5031277;28;20432;-68
2023/12/09 12:07:14;;;;;;;3.10;1.90;;;;;;;;;;5013577;28;20421;-69
2023/12/09 12:09:40;;;;;;;4.47;2.43;;;;;;;;;;5031473;28;20474;-69
2023/12/09 12:12:09;;;;;;;4.77;2.57;;;;;;;;;;5031497;28;20476;-68
2023/12/09 12:14:36;;;;;;;3.83;2.20;;;;;;;;;;5031308;28;20485;-68
2023/12/09 12:17:02;;;;;;;3.87;2.40;;;;;;;;;;5013574;28;20425;-69
2023/12/09 12:19:29;;;;;;;4.47;3.00;;;;;;;;;;5031221;28;20411;-68
2023/12/09 12:21:55;;;;;;;4.83;2.00;;;;;;;;;;5031341;28;20418;-69
2023/12/09 12:24:22;;;;;;;5.53;2.83;;;;;;;;;;5013335;28;20434;-68
2023/12/09 12:26:48;;;;;;;3.37;2.40;;;;;;;;;;5031261;28;20429;-68
2023/12/09 12:29:18;;;;;;;3.07;2.20;;;;;;;;;;5031255;28;20413;-69
2023/12/09 12:31:43;;;;;;;4.43;2.60;;;;;;;;;;5031378;28;20410;-69
2023/12/09 12:34:17;;;;;;;4.50;2.53;;;;;;;;;;5013619;28;20804;-68
2023/12/09 12:36:43;;;;;;;7.50;3.60;;;;;;;;;;5031060;28;20467;-68
2023/12/09 12:39:09;;;;;;;5.80;2.20;;;;;;;;;;5033129;28;20406;-69
2023/12/09 12:41:35;;;;;;;3.13;2.20;;;;;;;;;;5034924;28;20420;-68
2023/12/09 12:44:01;;;;;;;4.40;2.57;;;;;;;;;;5016656;28;20480;-69
2023/12/09 12:46:27;;;;;;;4.60;2.60;;;;;;;;;;5034350;28;20434;-69
2023/12/09 12:48:53;;;;;;;4.20;2.97;;;;;;;;;;5034546;28;20406;-69
2023/12/09 12:51:19;;;;;;;4.83;2.43;;;;;;;;;;5034419;28;20408;-68
2023/12/09 12:53:46;;;;;;;3.87;2.73;;;;;;;;;;5034282;28;20437;-68
2023/12/09 12:56:12;;;;;;;3.70;2.50;;;;;;;;;;5034576;28;20818;-69
2023/12/09 12:58:39;;;;;;;4.87;3.23;;;;;;;;;;5034755;28;20412;-68
2023/12/09 13:01:05;;;;;;;3.43;2.40;;;;;;;;;;5034479;28;20418;-68
2023/12/09 13:03:32;;;;;;;4.80;3.10;;;;;;;;;;5034100;28;20449;-68
2023/12/09 13:05:58;;;;;;;6.10;2.90;;;;;;;;;;5034255;28;20447;-69
2023/12/09 13:08:26;;;;;;;5.83;3.37;;;;;;;;;;5033820;28;20417;-69
2023/12/09 13:10:52;;;;;;;7.73;4.40;;;;;;;;;;5034172;28;20410;-69
2023/12/09 13:13:18;;;;;;;4.30;2.90;;;;;;;;;;5034055;28;20422;-68
2023/12/09 13:15:44;;;;;;;4.93;2.87;;;;;;;;;;5034240;28;20464;-68
2023/12/09 13:18:12;;;;;;;6.20;3.10;;;;;;;;;;5033813;28;20535;-68
2023/12/09 13:20:38;;;;;;;5.10;2.93;;;;;;;;;;5033965;28;20536;-68